Guilford, Maine
Current Conditions -  °F | °C
As of 3:35 AM on Thursday 18 Dec 2014 (Local Time) from KBGR Reporting Station
Light Snow Light Snow  
Wind Chill: 22°   Ceiling: 1100
Heat Index: 33°   Visibility: 2.5mi
Dew Point: 31°   Wind: 17mph
Humidity: 92%   Direction: 340°NNW
Pressure: 29.58"   Gusts: NA
Location:  45.17°N, 69.39°W
Report Text: KBGR 180835Z 34015KT 2 1/2SM -SN BR FEW006 BKN011 OVC018 01/M01 A2958 RMK AO2 P0000 T00061006
Loading
Personal Weather Stations






























Interactive Weather Map New forecast layout! Learn more

10-Day Weather Forecast

Advertisements
Track Severe Weather on mobile